Time;durP1;ratioP1;P1;durP2;ratioP2;P2;SDS_P1;SDS_P2;PMS_P1;PMS_P2;Temp;Humidity;BMP_temperature;BMP_pressure;BME280_temperature;BME280_humidity;BME280_pressure;Samples;Min_cycle;Max_cycle;Signal;HPM_P1;HPM_P2
2023/06/06 00:02:13;;;;;;;15.68;9.55;;;;;;;;;;5013141;28;20689;-57
2023/06/06 00:04:39;;;;;;;15.45;10.15;;;;;;;;;;5014444;28;20608;-57
2023/06/06 00:07:08;;;;;;;19.20;10.38;;;;;;;;;;5013620;28;20212;-57
2023/06/06 00:09:33;;;;;;;13.40;9.57;;;;;;;;;;5013392;28;20220;-57
2023/06/06 00:12:00;;;;;;;17.50;10.82;;;;;;;;;;5013905;28;20232;-57
2023/06/06 00:14:31;;;;;;;15.68;9.70;;;;;;;;;;5013884;28;20303;-57
2023/06/06 00:16:56;;;;;;;15.57;10.40;;;;;;;;;;5013271;28;20205;-57
2023/06/06 00:19:22;;;;;;;15.05;9.25;;;;;;;;;;5013623;28;20300;-57
2023/06/06 00:21:47;;;;;;;16.33;10.20;;;;;;;;;;5013965;28;20208;-57
2023/06/06 00:24:12;;;;;;;16.27;10.38;;;;;;;;;;5012301;28;20296;-57
2023/06/06 00:26:38;;;;;;;16.70;10.57;;;;;;;;;;5013729;28;20287;-57
2023/06/06 00:29:03;;;;;;;19.10;10.18;;;;;;;;;;5013420;28;20232;-57
2023/06/06 00:31:28;;;;;;;20.95;10.27;;;;;;;;;;5012731;28;20213;-57
2023/06/06 00:33:54;;;;;;;15.07;9.68;;;;;;;;;;5013984;28;20215;-58
2023/06/06 00:36:19;;;;;;;15.15;9.20;;;;;;;;;;5013233;28;20590;-57
2023/06/06 00:38:47;;;;;;;15.98;9.60;;;;;;;;;;5012716;28;20696;-57
2023/06/06 00:41:12;;;;;;;14.52;9.77;;;;;;;;;;5013152;28;20216;-57
2023/06/06 00:43:37;;;;;;;17.88;10.98;;;;;;;;;;5013793;28;20220;-58
2023/06/06 00:46:02;;;;;;;17.80;10.98;;;;;;;;;;5012318;28;20216;-57
2023/06/06 00:48:28;;;;;;;16.67;10.18;;;;;;;;;;5013356;28;20247;-58
2023/06/06 00:50:53;;;;;;;16.35;9.80;;;;;;;;;;5013417;28;20209;-57
2023/06/06 00:53:20;;;;;;;14.95;10.25;;;;;;;;;;5011781;28;20248;-57
2023/06/06 00:55:45;;;;;;;16.10;10.80;;;;;;;;;;5013284;28;20213;-57
2023/06/06 00:58:11;;;;;;;17.58;11.02;;;;;;;;;;5010929;28;20623;-57
2023/06/06 01:00:37;;;;;;;17.73;10.18;;;;;;;;;;5012693;28;20217;-57
2023/06/06 01:03:03;;;;;;;16.10;10.77;;;;;;;;;;5011510;28;20220;-57
2023/06/06 01:05:29;;;;;;;18.45;10.52;;;;;;;;;;5011229;28;20204;-57
2023/06/06 01:07:56;;;;;;;16.83;9.73;;;;;;;;;;5013068;28;20239;-57
2023/06/06 01:10:21;;;;;;;15.77;9.95;;;;;;;;;;5011442;28;20225;-57
2023/06/06 01:12:49;;;;;;;19.58;10.73;;;;;;;;;;5012129;28;20240;-57
2023/06/06 01:15:14;;;;;;;16.90;11.05;;;;;;;;;;5011321;28;20263;-57
2023/06/06 01:17:41;;;;;;;16.92;10.48;;;;;;;;;;5012903;28;20212;-57
2023/06/06 01:20:06;;;;;;;21.35;11.07;;;;;;;;;;5010549;28;20266;-56
2023/06/06 01:22:32;;;;;;;15.95;9.85;;;;;;;;;;5012834;28;20209;-57
2023/06/06 01:24:57;;;;;;;17.02;10.13;;;;;;;;;;5011315;28;20682;-57
2023/06/06 01:27:22;;;;;;;13.77;9.73;;;;;;;;;;5011406;28;20228;-57
2023/06/06 01:29:49;;;;;;;17.35;10.88;;;;;;;;;;5012060;28;20224;-57
2023/06/06 01:32:17;;;;;;;17.92;11.65;;;;;;;;;;5011661;28;20236;-57
2023/06/06 01:34:44;;;;;;;19.75;11.27;;;;;;;;;;5011255;28;20212;-58
2023/06/06 01:37:11;;;;;;;18.27;11.38;;;;;;;;;;5010442;28;20223;-56
2023/06/06 01:39:36;;;;;;;15.30;10.25;;;;;;;;;;5010427;28;20236;-57
2023/06/06 01:42:01;;;;;;;18.10;11.05;;;;;;;;;;5009443;28;20247;-57
2023/06/06 01:44:27;;;;;;;15.02;11.00;;;;;;;;;;5010557;28;20367;-57
2023/06/06 01:46:52;;;;;;;17.45;10.43;;;;;;;;;;5010699;28;20215;-57
2023/06/06 01:49:17;;;;;;;17.27;10.68;;;;;;;;;;5009276;28;20233;-57
2023/06/06 01:51:43;;;;;;;21.75;12.18;;;;;;;;;;5011777;28;20230;-58
2023/06/06 01:54:08;;;;;;;18.80;10.73;;;;;;;;;;5010976;28;21097;-57
2023/06/06 01:56:33;;;;;;;18.00;11.23;;;;;;;;;;5010543;28;20204;-57
2023/06/06 01:58:59;;;;;;;18.30;11.63;;;;;;;;;;5011397;28;20218;-57
2023/06/06 02:01:26;;;;;;;17.88;10.90;;;;;;;;;;5011250;28;20208;-57
2023/06/06 02:03:51;;;;;;;19.27;11.55;;;;;;;;;;5010935;28;20581;-57
2023/06/06 02:06:16;;;;;;;19.60;11.98;;;;;;;;;;5011110;28;20208;-57
2023/06/06 02:08:41;;;;;;;15.45;11.23;;;;;;;;;;5010874;28;20220;-57
2023/06/06 02:11:07;;;;;;;16.95;11.32;;;;;;;;;;5014239;28;20204;-57
2023/06/06 02:13:32;;;;;;;19.23;11.18;;;;;;;;;;5014732;28;20228;-57
2023/06/06 02:15:57;;;;;;;19.02;11.23;;;;;;;;;;5014108;28;20212;-57
2023/06/06 02:18:23;;;;;;;22.85;11.80;;;;;;;;;;5014447;28;20208;-57
2023/06/06 02:20:48;;;;;;;17.75;10.93;;;;;;;;;;5014789;28;20705;-57
2023/06/06 02:23:13;;;;;;;18.73;11.07;;;;;;;;;;5013717;28;20257;-57
2023/06/06 02:25:39;;;;;;;18.33;11.65;;;;;;;;;;5014802;28;20227;-57
2023/06/06 02:28:04;;;;;;;18.02;11.32;;;;;;;;;;4971942;28;1224015;-57
2023/06/06 02:30:29;;;;;;;21.67;11.25;;;;;;;;;;5015239;28;20219;-57
2023/06/06 02:32:56;;;;;;;17.98;11.13;;;;;;;;;;5016149;28;20730;-57
2023/06/06 02:35:21;;;;;;;17.40;11.30;;;;;;;;;;5015363;28;20220;-57
2023/06/06 02:37:46;;;;;;;16.67;10.82;;;;;;;;;;5015306;28;20216;-57
2023/06/06 02:40:12;;;;;;;20.67;12.18;;;;;;;;;;5015238;28;20212;-57
2023/06/06 02:42:38;;;;;;;22.25;12.18;;;;;;;;;;5015682;28;20220;-58
2023/06/06 02:45:07;;;;;;;17.70;11.68;;;;;;;;;;5014429;28;20256;-57
2023/06/06 02:47:32;;;;;;;20.17;12.18;;;;;;;;;;5015921;28;20240;-57
2023/06/06 02:49:57;;;;;;;21.58;11.80;;;;;;;;;;5015502;28;20211;-57
2023/06/06 02:52:23;;;;;;;21.15;12.70;;;;;;;;;;5014429;28;20608;-57
2023/06/06 02:54:48;;;;;;;22.45;12.60;;;;;;;;;;5015505;28;20228;-58
2023/06/06 02:57:13;;;;;;;20.98;11.43;;;;;;;;;;5014806;28;20249;-57
2023/06/06 02:59:38;;;;;;;27.02;13.32;;;;;;;;;;5014515;28;20577;-57
2023/06/06 03:02:04;;;;;;;21.35;12.98;;;;;;;;;;5015291;28;20262;-57
2023/06/06 03:04:29;;;;;;;21.48;12.27;;;;;;;;;;5015255;28;20224;-57
2023/06/06 03:06:56;;;;;;;19.40;12.60;;;;;;;;;;5014749;28;20215;-57
2023/06/06 03:09:22;;;;;;;22.73;13.07;;;;;;;;;;5014846;28;20215;-57
2023/06/06 03:11:47;;;;;;;20.55;12.95;;;;;;;;;;5015086;28;20252;-57
2023/06/06 03:14:12;;;;;;;19.33;12.95;;;;;;;;;;5014037;28;20212;-57
2023/06/06 03:16:39;;;;;;;24.20;14.43;;;;;;;;;;5015416;28;20640;-57
2023/06/06 03:19:05;;;;;;;25.17;13.43;;;;;;;;;;5014043;28;20208;-57
2023/06/06 03:21:30;;;;;;;22.90;13.30;;;;;;;;;;5014596;28;20310;-57
2023/06/06 03:23:56;;;;;;;18.77;12.50;;;;;;;;;;5015545;28;20258;-57
2023/06/06 03:26:26;;;;;;;18.85;11.90;;;;;;;;;;5013646;28;20231;-57
2023/06/06 03:28:51;;;;;;;18.83;12.20;;;;;;;;;;5014672;28;20231;-57
2023/06/06 03:31:20;;;;;;;23.17;12.35;;;;;;;;;;5014461;28;20224;-57
2023/06/06 03:33:45;;;;;;;18.60;12.05;;;;;;;;;;5014058;28;20676;-57
2023/06/06 03:36:10;;;;;;;22.00;12.25;;;;;;;;;;5014405;28;20266;-57
2023/06/06 03:38:35;;;;;;;20.42;12.10;;;;;;;;;;5014976;28;20205;-57
2023/06/06 03:41:02;;;;;;;19.45;12.00;;;;;;;;;;5013518;28;20299;-57
2023/06/06 03:43:27;;;;;;;25.02;13.15;;;;;;;;;;5014495;28;20208;-58
2023/06/06 03:45:52;;;;;;;21.88;12.73;;;;;;;;;;4994954;28;20235;-57
2023/06/06 03:48:18;;;;;;;21.65;12.23;;;;;;;;;;4998689;28;20591;-57
2023/06/06 03:50:43;;;;;;;18.42;12.70;;;;;;;;;;4979433;28;20217;-57
2023/06/06 03:53:08;;;;;;;24.63;12.95;;;;;;;;;;4978954;28;20295;-57
2023/06/06 03:55:34;;;;;;;20.95;12.07;;;;;;;;;;4993932;28;20220;-57
2023/06/06 03:58:00;;;;;;;23.33;13.57;;;;;;;;;;4985406;28;20691;-57
2023/06/06 04:00:25;;;;;;;20.73;12.93;;;;;;;;;;5003230;28;20212;-57
2023/06/06 04:02:51;;;;;;;20.63;13.18;;;;;;;;;;4991664;28;20213;-58
2023/06/06 04:05:17;;;;;;;18.13;11.75;;;;;;;;;;5003274;28;20251;-57
2023/06/06 04:07:42;;;;;;;19.83;12.63;;;;;;;;;;5004438;28;20251;-57
2023/06/06 04:10:08;;;;;;;19.50;12.75;;;;;;;;;;5002814;28;20309;-57
2023/06/06 04:12:33;;;;;;;23.63;13.35;;;;;;;;;;4996542;28;20488;-57
2023/06/06 04:14:59;;;;;;;21.65;13.07;;;;;;;;;;4988206;28;20217;-57
2023/06/06 04:17:24;;;;;;;21.10;12.50;;;;;;;;;;4975861;28;20308;-57
2023/06/06 04:19:50;;;;;;;21.30;13.27;;;;;;;;;;4995522;28;20343;-57
2023/06/06 04:22:15;;;;;;;19.90;12.65;;;;;;;;;;5003665;28;20221;-57
2023/06/06 04:24:41;;;;;;;17.58;12.27;;;;;;;;;;5003530;28;20217;-57
2023/06/06 04:27:07;;;;;;;19.10;12.35;;;;;;;;;;5003247;28;20227;-57
2023/06/06 04:29:35;;;;;;;19.13;12.68;;;;;;;;;;5002949;28;20674;-57
2023/06/06 04:32:03;;;;;;;20.83;12.20;;;;;;;;;;5002467;28;20229;-55
2023/06/06 04:34:30;;;;;;;19.70;12.85;;;;;;;;;;4998308;28;20672;-57
2023/06/06 04:37:04;;;;;;;23.88;12.02;;;;;;;;;;4994535;28;20710;-58
2023/06/06 04:39:35;;;;;;;22.58;13.18;;;;;;;;;;4995221;28;20686;-57
2023/06/06 04:42:01;;;;;;;33.85;12.20;;;;;;;;;;5001721;28;20205;-56
2023/06/06 04:44:26;;;;;;;23.80;13.25;;;;;;;;;;5002334;28;20219;-57
2023/06/06 04:46:52;;;;;;;18.73;11.75;;;;;;;;;;5003238;28;20270;-57
2023/06/06 04:49:18;;;;;;;16.92;11.45;;;;;;;;;;5002745;28;20209;-57
2023/06/06 04:51:44;;;;;;;17.98;11.90;;;;;;;;;;5001979;28;20228;-57
2023/06/06 04:54:10;;;;;;;22.30;11.63;;;;;;;;;;4996365;28;20228;-57
2023/06/06 04:56:35;;;;;;;17.73;11.95;;;;;;;;;;4987391;28;20205;-57
2023/06/06 04:59:05;;;;;;;18.27;11.18;;;;;;;;;;4974938;28;20213;-56
2023/06/06 05:01:31;;;;;;;18.92;10.93;;;;;;;;;;4994657;28;20632;-57
2023/06/06 05:03:56;;;;;;;18.25;10.75;;;;;;;;;;4998935;28;20675;-57
2023/06/06 05:06:22;;;;;;;17.17;11.43;;;;;;;;;;5002030;28;20738;-57
2023/06/06 05:08:48;;;;;;;22.17;11.23;;;;;;;;;;5003220;28;20274;-57
2023/06/06 05:11:13;;;;;;;19.88;11.07;;;;;;;;;;5002874;28;20307;-57
2023/06/06 05:13:39;;;;;;;17.77;10.65;;;;;;;;;;5002028;28;20311;-57
2023/06/06 05:16:04;;;;;;;16.95;10.15;;;;;;;;;;4986176;28;20311;-57
2023/06/06 05:18:30;;;;;;;19.05;10.80;;;;;;;;;;4982334;28;20316;-58
2023/06/06 05:21:00;;;;;;;17.15;10.38;;;;;;;;;;4994475;28;20235;-57
2023/06/06 05:23:26;;;;;;;15.45;10.10;;;;;;;;;;4994454;28;20307;-57
2023/06/06 05:25:52;;;;;;;16.75;10.52;;;;;;;;;;4995818;28;20235;-58
2023/06/06 05:28:17;;;;;;;17.52;10.30;;;;;;;;;;5001776;28;20715;-58
2023/06/06 05:30:42;;;;;;;17.77;10.23;;;;;;;;;;5002402;28;20702;-58
2023/06/06 05:33:08;;;;;;;15.40;10.40;;;;;;;;;;5001052;28;20438;-58
2023/06/06 05:35:34;;;;;;;17.33;10.40;;;;;;;;;;5003030;28;20719;-58
2023/06/06 05:37:59;;;;;;;16.05;10.30;;;;;;;;;;4996196;28;20299;-57
2023/06/06 05:40:24;;;;;;;18.57;10.90;;;;;;;;;;4979323;28;20424;-57
2023/06/06 05:42:50;;;;;;;16.50;10.10;;;;;;;;;;4975945;28;20313;-58
2023/06/06 05:45:15;;;;;;;14.75;9.68;;;;;;;;;;4973044;28;20221;-57
2023/06/06 05:47:40;;;;;;;17.35;10.05;;;;;;;;;;4973455;28;20205;-58
2023/06/06 05:50:06;;;;;;;17.40;9.98;;;;;;;;;;4979975;28;20216;-57
2023/06/06 05:52:31;;;;;;;14.90;10.45;;;;;;;;;;4981850;28;20228;-58
2023/06/06 05:55:00;;;;;;;16.73;10.18;;;;;;;;;;4983441;28;20263;-58
2023/06/06 05:57:25;;;;;;;16.48;9.82;;;;;;;;;;4982052;28;20614;-58
2023/06/06 05:59:51;;;;;;;14.77;9.68;;;;;;;;;;4983149;28;20248;-58
2023/06/06 06:02:17;;;;;;;16.55;9.65;;;;;;;;;;4981557;28;20209;-58
2023/06/06 06:04:43;;;;;;;15.82;9.98;;;;;;;;;;4998151;28;20214;-58
2023/06/06 06:07:08;;;;;;;15.60;9.75;;;;;;;;;;4993857;28;20317;-58
2023/06/06 06:09:34;;;;;;;14.98;10.02;;;;;;;;;;4993621;28;20211;-57
2023/06/06 06:11:59;;;;;;;17.08;10.50;;;;;;;;;;4988823;28;20240;-58
2023/06/06 06:14:25;;;;;;;14.88;9.15;;;;;;;;;;4982332;28;20247;-58
2023/06/06 06:16:50;;;;;;;15.07;9.47;;;;;;;;;;4982059;28;20334;-58
2023/06/06 06:19:15;;;;;;;11.75;8.50;;;;;;;;;;4982472;28;20692;-57
2023/06/06 06:21:41;;;;;;;13.13;9.13;;;;;;;;;;4983439;28;20205;-57
2023/06/06 06:24:06;;;;;;;15.63;10.23;;;;;;;;;;4985955;28;20205;-56
2023/06/06 06:26:32;;;;;;;13.68;9.27;;;;;;;;;;4977666;28;20248;-58
2023/06/06 06:28:58;;;;;;;15.00;9.10;;;;;;;;;;4973696;28;20884;-58
2023/06/06 06:31:23;;;;;;;19.58;9.20;;;;;;;;;;4974088;28;20606;-58
2023/06/06 06:33:48;;;;;;;14.52;9.25;;;;;;;;;;4974922;28;20719;-58
2023/06/06 06:36:20;;;;;;;15.55;9.75;;;;;;;;;;4981715;28;20355;-58
2023/06/06 06:38:54;;;;;;;17.25;9.50;;;;;;;;;;5001902;28;20213;-58
2023/06/06 06:41:20;;;;;;;16.65;9.00;;;;;;;;;;5001456;28;20216;-58
2023/06/06 06:43:51;;;;;;;13.90;9.05;;;;;;;;;;5006143;28;20204;-58
2023/06/06 06:46:19;;;;;;;15.05;8.82;;;;;;;;;;5015963;28;20291;-57
2023/06/06 06:48:57;;;;;;;14.15;9.25;;;;;;;;;;5030715;28;20253;-58
2023/06/06 06:51:22;;;;;;;15.32;9.43;;;;;;;;;;5018516;28;20712;-58
2023/06/06 06:53:51;;;;;;;14.68;9.18;;;;;;;;;;5001350;28;20316;-59
2023/06/06 06:56:19;;;;;;;12.88;8.45;;;;;;;;;;5003863;28;20209;-58
2023/06/06 06:58:45;;;;;;;15.23;8.20;;;;;;;;;;5014526;28;20309;-57
2023/06/06 07:01:19;;;;;;;18.13;8.75;;;;;;;;;;5014779;28;20691;-57
2023/06/06 07:03:52;;;;;;;14.85;8.25;;;;;;;;;;5014237;28;20219;-58
2023/06/06 07:06:20;;;;;;;15.35;8.60;;;;;;;;;;5019036;28;20216;-59
2023/06/06 07:08:48;;;;;;;12.73;8.60;;;;;;;;;;5006880;28;20209;-58
2023/06/06 07:11:14;;;;;;;17.65;9.60;;;;;;;;;;5011893;28;20212;-58
2023/06/06 07:13:40;;;;;;;17.02;8.48;;;;;;;;;;5013324;28;20907;-58
2023/06/06 07:16:05;;;;;;;13.88;8.77;;;;;;;;;;5013502;28;20216;-57
2023/06/06 07:18:30;;;;;;;14.45;8.57;;;;;;;;;;5014225;28;20217;-58
2023/06/06 07:20:56;;;;;;;17.48;8.68;;;;;;;;;;5015088;28;20263;-58
2023/06/06 07:23:21;;;;;;;13.80;8.10;;;;;;;;;;5014651;28;20270;-57
2023/06/06 07:26:06;;;;;;;13.77;8.48;;;;;;;;;;5013728;28;20201;-58
2023/06/06 07:28:34;;;;;;;14.43;8.48;;;;;;;;;;5013983;28;20607;-58
2023/06/06 07:31:00;;;;;;;16.42;7.90;;;;;;;;;;5014865;28;20200;-58
2023/06/06 07:33:28;;;;;;;14.20;8.40;;;;;;;;;;5013374;28;20572;-58
2023/06/06 07:35:53;;;;;;;12.15;8.65;;;;;;;;;;5014666;28;20239;-58
2023/06/06 07:38:22;;;;;;;15.57;8.45;;;;;;;;;;5014575;28;20703;-58
2023/06/06 07:40:47;;;;;;;14.82;7.72;;;;;;;;;;5013632;28;20232;-58
2023/06/06 07:43:13;;;;;;;13.18;9.05;;;;;;;;;;5010948;28;20251;-58
2023/06/06 07:45:38;;;;;;;13.90;8.80;;;;;;;;;;5007748;28;20216;-58
2023/06/06 07:48:10;;;;;;;12.57;7.82;;;;;;;;;;5012905;28;20215;-58
2023/06/06 07:50:35;;;;;;;14.07;8.73;;;;;;;;;;5014238;28;20222;-58
2023/06/06 07:53:01;;;;;;;11.85;7.85;;;;;;;;;;5013945;28;20233;-57
2023/06/06 07:55:31;;;;;;;15.13;9.18;;;;;;;;;;5009401;28;20236;-58
2023/06/06 07:57:57;;;;;;;13.60;8.25;;;;;;;;;;5014352;28;20239;-58
2023/06/06 08:00:23;;;;;;;12.90;7.85;;;;;;;;;;5013586;28;20212;-58
2023/06/06 08:02:54;;;;;;;14.55;8.10;;;;;;;;;;5012893;28;20231;-58
2023/06/06 08:05:36;;;;;;;14.60;8.05;;;;;;;;;;5013695;28;20216;-58
2023/06/06 08:08:02;;;;;;;13.18;7.53;;;;;;;;;;5011983;28;20613;-57
2023/06/06 08:10:33;;;;;;;17.92;8.32;;;;;;;;;;5013899;28;20204;-58
2023/06/06 08:12:59;;;;;;;16.98;8.20;;;;;;;;;;5013975;28;20291;-58
2023/06/06 08:15:25;;;;;;;13.27;8.27;;;;;;;;;;5012993;28;20216;-58
2023/06/06 08:17:54;;;;;;;14.05;8.13;;;;;;;;;;5013763;28;20737;-58
2023/06/06 08:20:20;;;;;;;13.65;7.47;;;;;;;;;;5013333;28;20215;-58
2023/06/06 08:22:51;;;;;;;14.93;7.78;;;;;;;;;;5013215;28;20212;-58
2023/06/06 08:25:17;;;;;;;14.05;7.47;;;;;;;;;;5011883;28;20220;-58
2023/06/06 08:27:42;;;;;;;14.98;7.88;;;;;;;;;;5013654;28;20307;-58
2023/06/06 08:30:11;;;;;;;11.88;7.22;;;;;;;;;;5012241;28;20228;-57
2023/06/06 08:32:37;;;;;;;13.95;7.80;;;;;;;;;;5013452;28;20240;-58
2023/06/06 08:35:14;;;;;;;16.85;7.72;;;;;;;;;;5013032;28;20232;-58
2023/06/06 08:37:40;;;;;;;13.68;7.15;;;;;;;;;;5012892;28;20204;-58
2023/06/06 08:40:25;;;;;;;12.95;8.20;;;;;;;;;;5012645;28;20384;-58
2023/06/06 08:42:52;;;;;;;15.50;7.72;;;;;;;;;;5012954;28;20219;-58
2023/06/06 08:45:23;;;;;;;13.63;7.50;;;;;;;;;;5013079;28;20245;-58
2023/06/06 08:47:52;;;;;;;12.68;6.72;;;;;;;;;;5013386;28;20212;-58
2023/06/06 08:50:17;;;;;;;12.18;7.57;;;;;;;;;;5010742;28;20220;-58
2023/06/06 08:52:42;;;;;;;10.20;6.93;;;;;;;;;;5011970;28;20242;-58
2023/06/06 08:55:08;;;;;;;14.82;7.03;;;;;;;;;;5011530;28;20233;-58
2023/06/06 08:57:34;;;;;;;13.98;7.38;;;;;;;;;;5012851;28;20572;-59
2023/06/06 09:00:11;;;;;;;13.40;7.45;;;;;;;;;;5013348;28;20208;-58
2023/06/06 09:02:37;;;;;;;14.05;7.20;;;;;;;;;;5013084;28;20212;-58
2023/06/06 09:05:02;;;;;;;14.18;7.50;;;;;;;;;;5011842;28;20204;-58
2023/06/06 09:07:28;;;;;;;14.70;7.55;;;;;;;;;;5012014;28;20223;-58
2023/06/06 09:09:53;;;;;;;11.10;6.50;;;;;;;;;;5013038;28;20207;-58
2023/06/06 09:12:18;;;;;;;14.70;7.18;;;;;;;;;;5012053;28;20232;-58
2023/06/06 09:14:44;;;;;;;13.93;7.70;;;;;;;;;;5013131;28;20215;-58
2023/06/06 09:17:14;;;;;;;11.50;6.40;;;;;;;;;;5011345;28;20243;-58
2023/06/06 09:19:40;;;;;;;14.50;6.80;;;;;;;;;;5011789;28;20702;-58
2023/06/06 09:22:05;;;;;;;14.55;7.32;;;;;;;;;;5011057;28;20260;-58
2023/06/06 09:24:31;;;;;;;15.88;6.80;;;;;;;;;;5013143;28;20215;-58
2023/06/06 09:26:56;;;;;;;14.45;8.02;;;;;;;;;;5012099;28;20216;-58
2023/06/06 09:29:22;;;;;;;12.00;7.10;;;;;;;;;;5012124;28;20311;-58
2023/06/06 09:31:48;;;;;;;10.02;6.40;;;;;;;;;;5011198;28;20216;-58
2023/06/06 09:34:14;;;;;;;14.15;7.30;;;;;;;;;;5012117;28;20263;-58
2023/06/06 09:36:43;;;;;;;13.55;6.20;;;;;;;;;;5011396;28;20672;-59
2023/06/06 09:39:08;;;;;;;10.55;7.05;;;;;;;;;;5011647;28;20332;-58
2023/06/06 09:41:49;;;;;;;11.60;7.07;;;;;;;;;;5012619;28;20783;-58
2023/06/06 09:44:19;;;;;;;10.60;6.35;;;;;;;;;;5012411;28;20702;-58
2023/06/06 09:46:44;;;;;;;9.65;6.38;;;;;;;;;;5011794;28;20212;-58
2023/06/06 09:49:13;;;;;;;12.45;6.68;;;;;;;;;;5012103;28;20219;-59
2023/06/06 09:51:44;;;;;;;11.18;6.53;;;;;;;;;;5012286;28;20224;-59
2023/06/06 09:54:10;;;;;;;11.57;6.53;;;;;;;;;;4996352;28;20302;-58
2023/06/06 09:56:39;;;;;;;11.18;6.60;;;;;;;;;;5012342;28;20267;-58
2023/06/06 09:59:05;;;;;;;11.25;6.20;;;;;;;;;;5012198;28;20216;-58
2023/06/06 10:01:31;;;;;;;15.48;6.95;;;;;;;;;;5011633;28;20213;-58
2023/06/06 10:03:56;;;;;;;12.77;6.85;;;;;;;;;;5011306;28;20235;-58
2023/06/06 10:06:22;;;;;;;13.55;7.38;;;;;;;;;;5011834;28;20656;-58
2023/06/06 10:08:48;;;;;;;10.65;6.22;;;;;;;;;;5011766;28;20571;-59
2023/06/06 10:11:13;;;;;;;11.05;6.68;;;;;;;;;;5011805;28;20216;-59
2023/06/06 10:13:38;;;;;;;13.80;6.68;;;;;;;;;;5012513;28;20317;-58
2023/06/06 10:16:04;;;;;;;12.98;7.20;;;;;;;;;;5011018;28;20295;-59
2023/06/06 10:18:29;;;;;;;15.07;7.28;;;;;;;;;;5012510;28;20221;-59
2023/06/06 10:20:54;;;;;;;13.02;6.97;;;;;;;;;;5012108;28;20254;-59
2023/06/06 10:23:20;;;;;;;11.55;7.00;;;;;;;;;;5011231;28;20224;-59
2023/06/06 10:25:45;;;;;;;15.82;6.63;;;;;;;;;;5012147;28;20224;-59
2023/06/06 10:28:11;;;;;;;16.08;7.47;;;;;;;;;;5010812;28;20212;-58
2023/06/06 10:30:36;;;;;;;13.85;7.03;;;;;;;;;;5013238;28;20228;-59
2023/06/06 10:33:17;;;;;;;13.18;7.57;;;;;;;;;;5015633;28;20664;-57
2023/06/06 10:35:42;;;;;;;10.48;6.45;;;;;;;;;;5015036;28;20270;-59
2023/06/06 10:38:09;;;;;;;12.38;6.88;;;;;;;;;;5015390;28;20212;-58
2023/06/06 10:40:41;;;;;;;13.38;6.70;;;;;;;;;;5016037;28;20208;-59
2023/06/06 10:43:06;;;;;;;12.55;6.97;;;;;;;;;;5014550;28;20235;-58
2023/06/06 10:45:42;;;;;;;13.27;7.25;;;;;;;;;;5015930;28;20212;-59
2023/06/06 10:48:07;;;;;;;13.35;6.85;;;;;;;;;;5015376;28;20215;-58
2023/06/06 10:50:32;;;;;;;11.20;6.32;;;;;;;;;;5015006;28;20600;-59
2023/06/06 10:53:01;;;;;;;12.77;6.18;;;;;;;;;;5015556;28;20228;-59
2023/06/06 10:55:27;;;;;;;11.98;6.13;;;;;;;;;;5015167;28;20216;-58
2023/06/06 10:58:04;;;;;;;12.20;6.60;;;;;;;;;;5014731;28;20209;-59
2023/06/06 11:00:33;;;;;;;11.90;6.38;;;;;;;;;;5015312;28;20270;-58
2023/06/06 11:03:05;;;;;;;11.73;6.32;;;;;;;;;;5015470;28;20556;-59
2023/06/06 11:05:31;;;;;;;9.98;6.40;;;;;;;;;;5014688;28;20205;-59
2023/06/06 11:08:01;;;;;;;12.38;5.97;;;;;;;;;;5013831;28;20212;-58
2023/06/06 11:10:26;;;;;;;10.55;6.15;;;;;;;;;;5014427;28;20224;-58
2023/06/06 11:12:51;;;;;;;12.05;6.22;;;;;;;;;;5014002;28;20224;-59
2023/06/06 11:15:29;;;;;;;12.93;6.35;;;;;;;;;;5013762;28;20212;-58
2023/06/06 11:18:02;;;;;;;10.02;6.18;;;;;;;;;;5014522;28;20291;-59
2023/06/06 11:20:27;;;;;;;12.98;6.90;;;;;;;;;;5014923;28;20224;-59
2023/06/06 11:23:01;;;;;;;11.50;6.40;;;;;;;;;;5014995;28;20213;-59
2023/06/06 11:25:30;;;;;;;12.60;7.00;;;;;;;;;;5014086;28;20731;-58
2023/06/06 11:27:56;;;;;;;13.38;6.55;;;;;;;;;;5014995;28;20305;-59
2023/06/06 11:30:23;;;;;;;17.88;6.70;;;;;;;;;;5014584;28;20687;-59
2023/06/06 11:32:48;;;;;;;13.40;6.18;;;;;;;;;;5014012;28;20244;-59
2023/06/06 11:35:17;;;;;;;12.93;6.25;;;;;;;;;;5014501;28;20294;-59
2023/06/06 11:37:42;;;;;;;12.15;6.25;;;;;;;;;;5014638;28;20208;-59
2023/06/06 11:40:11;;;;;;;10.30;6.50;;;;;;;;;;5013303;28;20210;-59
2023/06/06 11:42:40;;;;;;;10.63;5.93;;;;;;;;;;5013433;28;20561;-59
2023/06/06 11:45:12;;;;;;;10.23;5.13;;;;;;;;;;5013094;28;20236;-58
2023/06/06 11:47:37;;;;;;;13.10;6.30;;;;;;;;;;5013859;28;20231;-58
2023/06/06 11:50:02;;;;;;;12.57;5.60;;;;;;;;;;5014429;28;20679;-59
2023/06/06 11:52:28;;;;;;;10.07;6.10;;;;;;;;;;5013895;28;20232;-59
2023/06/06 11:54:56;;;;;;;11.02;6.00;;;;;;;;;;5014303;28;20204;-59
2023/06/06 11:57:22;;;;;;;10.38;5.57;;;;;;;;;;5013449;28;20235;-59
2023/06/06 11:59:54;;;;;;;11.80;6.00;;;;;;;;;;5013840;28;20735;-59
2023/06/06 12:02:19;;;;;;;13.32;6.07;;;;;;;;;;5013988;28;20291;-59
2023/06/06 12:04:47;;;;;;;12.40;6.50;;;;;;;;;;5013119;28;20687;-59
2023/06/06 12:07:13;;;;;;;8.77;5.60;;;;;;;;;;5013029;28;20217;-58
2023/06/06 12:09:38;;;;;;;13.18;6.03;;;;;;;;;;5012930;28;20233;-59
2023/06/06 12:12:06;;;;;;;11.77;6.20;;;;;;;;;;5013890;28;20286;-58
2023/06/06 12:14:35;;;;;;;10.35;5.38;;;;;;;;;;5013276;28;20212;-59
2023/06/06 12:17:06;;;;;;;9.13;5.57;;;;;;;;;;5013815;28;20572;-57
2023/06/06 12:19:32;;;;;;;12.40;5.60;;;;;;;;;;5014055;28;20208;-59
2023/06/06 12:21:57;;;;;;;11.02;6.07;;;;;;;;;;5013408;28;20281;-59
2023/06/06 12:24:23;;;;;;;12.95;6.10;;;;;;;;;;5013376;28;20290;-59
2023/06/06 12:26:53;;;;;;;11.30;5.40;;;;;;;;;;5013896;28;20209;-59
2023/06/06 12:29:23;;;;;;;10.77;6.20;;;;;;;;;;5012318;28;20236;-59
2023/06/06 12:31:49;;;;;;;9.73;5.30;;;;;;;;;;5013756;28;20699;-59
2023/06/06 12:34:15;;;;;;;9.90;5.57;;;;;;;;;;5013384;28;20208;-58
2023/06/06 12:36:41;;;;;;;10.73;5.57;;;;;;;;;;5013254;28;20216;-59
2023/06/06 12:39:07;;;;;;;11.73;5.78;;;;;;;;;;5013175;28;20619;-58
2023/06/06 12:41:42;;;;;;;9.98;5.35;;;;;;;;;;5013494;28;20216;-59
2023/06/06 12:44:10;;;;;;;8.63;5.57;;;;;;;;;;5013069;28;20261;-59
2023/06/06 12:46:36;;;;;;;12.88;5.45;;;;;;;;;;5013711;28;20223;-59
2023/06/06 12:49:01;;;;;;;11.82;5.65;;;;;;;;;;5012298;28;20291;-58
2023/06/06 12:51:27;;;;;;;11.13;4.80;;;;;;;;;;5012245;28;20208;-59
2023/06/06 12:53:52;;;;;;;12.00;5.50;;;;;;;;;;5012334;28;20216;-59
2023/06/06 12:56:17;;;;;;;11.02;5.50;;;;;;;;;;5012159;28;20325;-59
2023/06/06 12:58:45;;;;;;;10.27;5.10;;;;;;;;;;5013531;28;20585;-59
2023/06/06 13:01:10;;;;;;;11.65;4.97;;;;;;;;;;5013079;28;20247;-59
2023/06/06 13:03:35;;;;;;;10.90;4.85;;;;;;;;;;5012529;28;20672;-59
2023/06/06 13:06:00;;;;;;;10.15;5.15;;;;;;;;;;5012958;28;20208;-58
2023/06/06 13:08:26;;;;;;;11.77;4.80;;;;;;;;;;5013265;28;20208;-59
2023/06/06 13:10:51;;;;;;;12.70;5.30;;;;;;;;;;5012167;28;20239;-59
2023/06/06 13:13:16;;;;;;;10.55;5.00;;;;;;;;;;5012795;28;20220;-59
2023/06/06 13:15:42;;;;;;;8.98;4.75;;;;;;;;;;5013172;28;20274;-59
2023/06/06 13:18:07;;;;;;;9.15;4.88;;;;;;;;;;5011754;28;20671;-59
2023/06/06 13:20:32;;;;;;;10.98;4.90;;;;;;;;;;5013366;28;20208;-59
2023/06/06 13:22:57;;;;;;;10.55;4.85;;;;;;;;;;5013046;28;20232;-59
2023/06/06 13:25:23;;;;;;;10.95;5.05;;;;;;;;;;5011469;28;20218;-59
2023/06/06 13:27:48;;;;;;;10.90;5.45;;;;;;;;;;5012822;28;20215;-59
2023/06/06 13:30:14;;;;;;;11.35;5.20;;;;;;;;;;5012339;28;20837;-59
2023/06/06 13:32:39;;;;;;;9.48;4.85;;;;;;;;;;5012053;28;20237;-59
2023/06/06 13:35:05;;;;;;;11.93;4.90;;;;;;;;;;5012275;28;20208;-59
2023/06/06 13:37:31;;;;;;;10.40;4.75;;;;;;;;;;5012979;28;20212;-59
2023/06/06 13:39:56;;;;;;;8.65;4.35;;;;;;;;;;5011753;28;20215;-59
2023/06/06 13:42:21;;;;;;;7.10;4.00;;;;;;;;;;5012390;28;20220;-59
2023/06/06 13:44:47;;;;;;;9.88;4.13;;;;;;;;;;5012687;28;20586;-59
2023/06/06 13:47:12;;;;;;;9.05;4.40;;;;;;;;;;5011703;28;20224;-59
2023/06/06 13:49:38;;;;;;;9.25;4.35;;;;;;;;;;5012620;28;20204;-59
2023/06/06 13:52:04;;;;;;;10.30;4.20;;;;;;;;;;5011480;28;20208;-58
2023/06/06 13:54:29;;;;;;;12.68;5.05;;;;;;;;;;5012152;28;20201;-59
2023/06/06 13:56:59;;;;;;;7.85;4.30;;;;;;;;;;5012480;28;20296;-59
2023/06/06 13:59:25;;;;;;;9.63;4.25;;;;;;;;;;5011462;28;20208;-59
2023/06/06 14:01:52;;;;;;;8.48;3.88;;;;;;;;;;5012593;28;20212;-59
2023/06/06 14:04:17;;;;;;;10.02;4.55;;;;;;;;;;5012874;28;20204;-59
2023/06/06 14:06:42;;;;;;;9.18;3.97;;;;;;;;;;5015999;28;20219;-59
2023/06/06 14:09:08;;;;;;;8.50;4.20;;;;;;;;;;5016084;28;20592;-59
2023/06/06 14:11:36;;;;;;;8.63;4.20;;;;;;;;;;5016315;28;20208;-58
2023/06/06 14:14:02;;;;;;;9.85;4.68;;;;;;;;;;5014835;28;20232;-59
2023/06/06 14:16:27;;;;;;;9.38;3.95;;;;;;;;;;5016366;28;20219;-59
2023/06/06 14:18:54;;;;;;;7.50;4.07;;;;;;;;;;5016445;28;20228;-59
2023/06/06 14:21:28;;;;;;;13.30;4.20;;;;;;;;;;5015116;28;20243;-59
2023/06/06 14:23:53;;;;;;;7.57;4.35;;;;;;;;;;5016091;28;20232;-59